createdAt,value
2023-09-22T00:00:49.969Z,100.00
2023-09-22T00:04:14.783Z,99.57
2023-09-22T00:07:39.922Z,98.97
2023-09-22T00:11:04.960Z,98.23
2023-09-22T00:14:30.231Z,97.82
2023-09-22T00:17:56.595Z,96.66
2023-09-22T00:21:21.175Z,98.02
2023-09-22T00:24:46.687Z,99.72
2023-09-22T00:28:11.688Z,98.52
2023-09-22T00:31:36.788Z,99.87
2023-09-22T00:35:05.315Z,100.00
2023-09-22T00:38:31.685Z,100.00
2023-09-22T00:41:57.873Z,100.00
2023-09-22T00:45:23.182Z,100.00
2023-09-22T00:48:46.808Z,100.00
2023-09-22T00:52:12.533Z,100.00
2023-09-22T00:55:38.310Z,100.00
2023-09-22T00:59:02.701Z,100.00
2023-09-22T01:02:27.720Z,100.00
2023-09-22T01:05:52.319Z,100.00
2023-09-22T01:09:18.309Z,100.00
2023-09-22T01:12:42.426Z,100.00
2023-09-22T01:16:07.879Z,100.00
2023-09-22T01:19:33.966Z,100.00
2023-09-22T01:23:00.442Z,100.00
2023-09-22T01:26:25.120Z,100.00
2023-09-22T01:29:49.810Z,100.00
2023-09-22T01:33:14.182Z,100.00
2023-09-22T01:36:38.515Z,100.00
2023-09-22T01:40:04.665Z,100.00
2023-09-22T01:43:29.628Z,100.00
2023-09-22T01:46:54.041Z,100.00
2023-09-22T01:50:17.901Z,100.00
2023-09-22T01:53:42.563Z,100.00
2023-09-22T01:57:08.024Z,100.00
2023-09-22T02:00:32.872Z,100.00
2023-09-22T02:03:57.469Z,100.00
2023-09-22T02:07:20.996Z,100.00
2023-09-22T02:10:45.438Z,100.00
2023-09-22T02:14:12.030Z,100.00
2023-09-22T02:17:36.438Z,100.00
2023-09-22T02:21:01.836Z,100.00
2023-09-22T02:24:25.602Z,100.00
2023-09-22T02:27:50.563Z,100.00
2023-09-22T02:31:15.888Z,100.00
2023-09-22T02:34:40.891Z,100.00
2023-09-22T02:38:05.947Z,100.00
2023-09-22T02:41:30.644Z,100.00
2023-09-22T02:44:54.291Z,100.00
2023-09-22T02:48:19.685Z,100.00
2023-09-22T02:51:43.973Z,100.00
2023-09-22T02:55:09.955Z,100.00
2023-09-22T02:58:34.031Z,100.00
2023-09-22T03:01:59.087Z,100.00
2023-09-22T03:05:24.313Z,100.00
2023-09-22T03:08:49.038Z,100.00
2023-09-22T03:12:12.632Z,100.00
2023-09-22T03:15:37.691Z,100.00
2023-09-22T03:19:01.598Z,100.00
2023-09-22T03:22:27.242Z,100.00
2023-09-22T03:25:51.990Z,100.00
2023-09-22T03:29:16.203Z,100.00
2023-09-22T03:32:41.822Z,100.00
2023-09-22T03:36:07.061Z,100.00
2023-09-22T03:39:34.058Z,100.00
2023-09-22T03:42:58.543Z,100.00
2023-09-22T03:46:22.510Z,100.00
2023-09-22T03:49:46.364Z,100.00
2023-09-22T03:53:10.186Z,100.00
2023-09-22T03:56:39.043Z,100.00
2023-09-22T04:00:03.309Z,100.00
2023-09-22T04:03:37.632Z,100.00
2023-09-22T04:07:02.550Z,100.00
2023-09-22T04:10:26.340Z,100.00
2023-09-22T04:13:52.441Z,100.00
2023-09-22T04:17:16.362Z,100.00
2023-09-22T04:20:45.705Z,100.00
2023-09-22T04:24:09.561Z,100.00
2023-09-22T04:27:44.234Z,100.00
2023-09-22T04:31:13.223Z,100.00
2023-09-22T04:34:38.373Z,100.00
2023-09-22T04:38:02.992Z,100.00
2023-09-22T04:41:28.920Z,100.00
2023-09-22T04:44:53.575Z,100.00
2023-09-22T04:48:19.925Z,100.00
2023-09-22T04:51:43.743Z,100.00
2023-09-22T04:55:08.227Z,100.00
2023-09-22T04:58:32.011Z,100.00
2023-09-22T05:01:56.433Z,100.00
2023-09-22T05:05:23.711Z,100.00
2023-09-22T05:08:47.939Z,100.00
2023-09-22T05:12:12.434Z,99.42
2023-09-22T05:15:36.995Z,98.72
2023-09-22T05:19:01.606Z,99.13
2023-09-22T05:22:27.558Z,98.88
2023-09-22T05:25:52.054Z,97.86
2023-09-22T05:29:17.266Z,98.21
2023-09-22T05:32:42.414Z,97.80
2023-09-22T05:36:07.253Z,97.87
2023-09-22T05:39:33.429Z,97.42
2023-09-22T05:42:57.977Z,96.73
2023-09-22T05:46:21.749Z,96.20
2023-09-22T05:49:45.833Z,94.23
2023-09-22T05:53:09.650Z,94.02
2023-09-22T05:56:36.492Z,92.78
2023-09-22T06:00:01.087Z,91.92
2023-09-22T06:03:26.246Z,90.55
2023-09-22T06:06:52.313Z,90.02
2023-09-22T06:10:16.352Z,90.28
2023-09-22T06:13:41.834Z,90.41
2023-09-22T06:17:05.981Z,89.70
2023-09-22T06:20:30.013Z,89.55
2023-09-22T06:23:53.887Z,88.55
2023-09-22T06:27:17.874Z,88.25
2023-09-22T06:30:43.301Z,88.32
2023-09-22T06:34:08.936Z,87.32
2023-09-22T06:37:33.018Z,87.30
2023-09-22T06:40:57.698Z,87.68
2023-09-22T06:44:21.890Z,86.98
2023-09-22T06:47:47.733Z,86.79
2023-09-22T06:51:16.697Z,86.74
2023-09-22T06:54:41.058Z,86.26
2023-09-22T06:58:07.709Z,85.86
2023-09-22T07:01:31.916Z,85.95
2023-09-22T07:04:58.014Z,84.86
2023-09-22T07:08:22.247Z,84.36
2023-09-22T07:11:46.124Z,82.73
2023-09-22T07:15:10.520Z,82.06
2023-09-22T07:18:34.444Z,80.98
2023-09-22T07:22:00.218Z,79.72
2023-09-22T07:25:27.895Z,78.04
2023-09-22T07:28:51.126Z,76.95
2023-09-22T07:32:15.953Z,77.07
2023-09-22T07:35:39.940Z,77.41
2023-09-22T07:39:05.972Z,76.86
2023-09-22T07:42:33.399Z,74.91
2023-09-22T07:45:57.284Z,75.10
2023-09-22T07:49:21.796Z,76.13
2023-09-22T07:52:47.029Z,75.15
2023-09-22T07:56:13.838Z,75.10
2023-09-22T07:59:36.786Z,74.11
2023-09-22T08:03:01.489Z,74.04
2023-09-22T08:06:25.578Z,72.14
2023-09-22T08:09:48.668Z,72.61
2023-09-22T08:13:13.159Z,71.87
2023-09-22T08:16:36.608Z,71.62
2023-09-22T08:20:00.267Z,72.19
2023-09-22T08:23:31.152Z,71.29
2023-09-22T08:27:01.669Z,69.87
2023-09-22T08:30:26.537Z,69.29
2023-09-22T08:33:49.881Z,69.39
2023-09-22T08:37:12.679Z,68.84
2023-09-22T08:40:38.236Z,68.12
2023-09-22T08:44:03.342Z,67.39
2023-09-22T08:47:28.277Z,66.98
2023-09-22T08:50:52.606Z,66.91
2023-09-22T08:54:16.721Z,66.43
2023-09-22T08:57:41.264Z,66.94
2023-09-22T09:01:05.603Z,65.67
2023-09-22T09:04:35.252Z,65.07
2023-09-22T09:08:13.008Z,64.38
2023-09-22T09:11:37.333Z,60.39
2023-09-22T09:15:02.213Z,62.48
2023-09-22T09:18:26.558Z,63.26
2023-09-22T09:22:09.722Z,59.61
2023-09-22T09:25:33.842Z,56.25
2023-09-22T09:28:58.129Z,55.68
2023-09-22T09:32:26.536Z,56.03
2023-09-22T09:35:51.976Z,56.24
2023-09-22T09:39:19.713Z,55.46
2023-09-22T09:42:44.117Z,53.63
2023-09-22T09:46:10.158Z,48.57
2023-09-22T09:49:34.359Z,48.94
2023-09-22T09:52:58.302Z,45.32
2023-09-22T09:56:35.703Z,46.29
2023-09-22T09:59:59.921Z,45.56
2023-09-22T10:03:24.507Z,43.08
2023-09-22T10:06:52.251Z,45.40
2023-09-22T10:10:17.621Z,43.99
2023-09-22T10:13:45.199Z,42.39
2023-09-22T10:17:21.424Z,43.58
2023-09-22T10:20:47.475Z,43.03
2023-09-22T10:24:35.033Z,42.93
2023-09-22T10:28:03.499Z,41.50
2023-09-22T10:31:31.406Z,40.74
2023-09-22T10:34:56.279Z,40.24
2023-09-22T10:38:22.063Z,40.55
2023-09-22T10:42:01.055Z,40.08
2023-09-22T10:45:26.731Z,39.68
2023-09-22T10:48:52.814Z,39.74
2023-09-22T10:52:18.849Z,40.60
2023-09-22T10:55:44.419Z,38.61
2023-09-22T10:59:09.326Z,39.44
2023-09-22T11:02:35.408Z,41.82
2023-09-22T11:06:00.570Z,39.50
2023-09-22T11:09:35.642Z,40.23
2023-09-22T11:12:58.902Z,40.50
2023-09-22T11:16:22.884Z,38.71
2023-09-22T11:19:53.227Z,39.55
2023-09-22T11:23:17.860Z,39.00
2023-09-22T11:26:44.016Z,39.31
2023-09-22T11:30:15.575Z,41.17
2023-09-22T11:33:38.907Z,39.12
2023-09-22T11:37:02.137Z,37.71
2023-09-22T11:40:29.494Z,37.96
2023-09-22T11:43:53.397Z,36.44
2023-09-22T11:47:24.323Z,35.67
2023-09-22T11:50:56.499Z,36.92
2023-09-22T11:54:21.127Z,38.13
2023-09-22T11:57:47.795Z,39.41
2023-09-22T12:01:12.465Z,39.30
2023-09-22T12:04:40.525Z,39.65
2023-09-22T12:08:05.772Z,40.67
2023-09-22T12:11:29.649Z,40.76
2023-09-22T12:14:54.051Z,41.56
2023-09-22T12:18:17.718Z,41.30
2023-09-22T12:21:40.725Z,39.93
2023-09-22T12:25:03.599Z,39.51
2023-09-22T12:28:26.343Z,38.15
2023-09-22T12:31:50.983Z,38.81
2023-09-22T12:35:14.304Z,39.40
2023-09-22T12:38:38.622Z,38.58
2023-09-22T12:42:04.354Z,39.26
2023-09-22T12:45:30.494Z,39.43
2023-09-22T12:48:56.748Z,40.76
2023-09-22T12:52:21.903Z,40.68
2023-09-22T12:55:45.969Z,41.31
2023-09-22T12:59:10.641Z,42.39
2023-09-22T13:02:35.373Z,44.05
2023-09-22T13:06:04.461Z,44.21
2023-09-22T13:09:29.968Z,44.48
2023-09-22T13:12:54.966Z,44.67
2023-09-22T13:16:22.685Z,44.23
2023-09-22T13:19:47.757Z,42.03
2023-09-22T13:23:13.299Z,43.37
2023-09-22T13:26:37.998Z,43.00
2023-09-22T13:30:02.097Z,42.87
2023-09-22T13:33:27.757Z,42.04
2023-09-22T13:36:52.102Z,41.76
2023-09-22T13:40:19.331Z,41.39
2023-09-22T13:43:44.898Z,40.14
2023-09-22T13:47:09.792Z,39.02
2023-09-22T13:50:34.268Z,40.33
2023-09-22T13:53:59.032Z,41.14
2023-09-22T13:57:27.186Z,41.06
2023-09-22T14:00:51.954Z,41.06
2023-09-22T14:04:17.226Z,40.28
2023-09-22T14:07:41.997Z,41.04
2023-09-22T14:11:07.140Z,41.96
2023-09-22T14:14:32.146Z,40.77
2023-09-22T14:17:57.899Z,40.99
2023-09-22T14:21:22.099Z,41.47
2023-09-22T14:24:48.498Z,40.75
2023-09-22T14:28:12.786Z,41.69
2023-09-22T14:31:39.420Z,41.55
2023-09-22T14:35:03.599Z,41.06
2023-09-22T14:38:29.136Z,39.39
2023-09-22T14:41:54.248Z,38.44
2023-09-22T14:45:19.638Z,38.16
2023-09-22T14:48:45.822Z,40.05
2023-09-22T14:52:11.301Z,41.89
2023-09-22T14:55:35.838Z,40.64
2023-09-22T14:59:01.234Z,42.20
2023-09-22T15:02:25.945Z,41.00
2023-09-22T15:05:52.357Z,40.23
2023-09-22T15:09:18.802Z,39.93
2023-09-22T15:12:45.199Z,40.07
2023-09-22T15:16:10.112Z,40.96
2023-09-22T15:19:34.719Z,39.86
2023-09-22T15:23:00.368Z,40.07
2023-09-22T15:26:25.850Z,39.99
2023-09-22T15:29:50.282Z,39.41
2023-09-22T15:33:16.207Z,40.77
2023-09-22T15:36:40.494Z,40.31
2023-09-22T15:40:09.274Z,40.77
2023-09-22T15:43:34.883Z,42.44
2023-09-22T15:47:01.776Z,43.61
2023-09-22T15:50:29.201Z,43.52
2023-09-22T15:53:56.877Z,43.36
2023-09-22T15:57:24.460Z,43.68
2023-09-22T16:00:49.444Z,44.29
2023-09-22T16:04:16.246Z,44.76
2023-09-22T16:07:41.423Z,46.46
2023-09-22T16:11:10.075Z,47.06
2023-09-22T16:14:38.091Z,47.86
2023-09-22T16:18:04.381Z,48.71
2023-09-22T16:21:29.080Z,49.13
2023-09-22T16:24:54.931Z,50.19
2023-09-22T16:28:21.892Z,50.54
2023-09-22T16:31:49.972Z,52.24
2023-09-22T16:35:15.582Z,53.21
2023-09-22T16:38:42.763Z,53.68
2023-09-22T16:42:08.184Z,54.52
2023-09-22T16:45:34.774Z,55.40
2023-09-22T16:49:03.768Z,56.00
2023-09-22T16:52:31.304Z,57.11
2023-09-22T16:55:57.475Z,57.48
2023-09-22T16:59:26.527Z,58.53
2023-09-22T17:02:52.466Z,58.41
2023-09-22T17:06:20.278Z,59.29
2023-09-22T17:09:45.568Z,59.45
2023-09-22T17:13:12.178Z,60.34
2023-09-22T17:16:39.175Z,61.16
2023-09-22T17:20:07.418Z,61.70
2023-09-22T17:23:34.582Z,62.85
2023-09-22T17:27:00.596Z,63.44
2023-09-22T17:30:26.390Z,63.23
2023-09-22T17:33:51.441Z,62.87
2023-09-22T17:37:18.575Z,62.66
2023-09-22T17:40:51.927Z,62.53
2023-09-22T17:44:17.778Z,62.23
2023-09-22T17:47:44.497Z,61.77
2023-09-22T17:51:11.006Z,62.27
2023-09-22T17:54:37.170Z,63.18
2023-09-22T17:58:04.867Z,62.98
2023-09-22T18:01:31.648Z,63.39
2023-09-22T18:04:58.738Z,65.10
2023-09-22T18:08:25.316Z,66.01
2023-09-22T18:11:57.644Z,65.13
2023-09-22T18:15:26.442Z,65.38
2023-09-22T18:18:53.433Z,64.66
2023-09-22T18:22:20.349Z,64.55
2023-09-22T18:25:49.957Z,65.08
2023-09-22T18:29:17.017Z,64.78
2023-09-22T18:32:46.134Z,65.78
2023-09-22T18:36:12.243Z,66.25
2023-09-22T18:39:39.815Z,66.82
2023-09-22T18:43:06.628Z,67.21
2023-09-22T18:46:34.180Z,66.07
2023-09-22T18:50:02.588Z,67.67
2023-09-22T18:53:29.112Z,68.32
2023-09-22T18:56:56.453Z,66.58
2023-09-22T19:00:25.175Z,68.45
2023-09-22T19:03:56.086Z,68.73
2023-09-22T19:07:25.736Z,68.34
2023-09-22T19:10:53.922Z,68.88
2023-09-22T19:14:21.635Z,68.62
2023-09-22T19:17:47.655Z,69.71
2023-09-22T19:21:15.807Z,68.82
2023-09-22T19:24:50.420Z,69.67
2023-09-22T19:28:16.993Z,70.30
2023-09-22T19:31:42.087Z,69.83
2023-09-22T19:35:11.936Z,70.30
2023-09-22T19:38:38.333Z,70.78
2023-09-22T19:42:09.320Z,69.78
2023-09-22T19:45:34.633Z,69.93
2023-09-22T19:49:00.776Z,71.23
2023-09-22T19:52:27.327Z,70.61
2023-09-22T19:55:53.167Z,70.30
2023-09-22T19:59:20.579Z,70.09
2023-09-22T20:02:48.319Z,69.70
2023-09-22T20:06:15.410Z,70.30
2023-09-22T20:09:42.685Z,70.24
2023-09-22T20:13:10.604Z,69.80
2023-09-22T20:16:40.460Z,70.17
2023-09-22T20:20:08.963Z,70.00
2023-09-22T20:23:35.621Z,70.87
2023-09-22T20:27:05.383Z,69.31
2023-09-22T20:30:29.824Z,70.55
2023-09-22T20:33:57.740Z,70.54
2023-09-22T20:37:23.691Z,69.85
2023-09-22T20:40:51.430Z,70.03
2023-09-22T20:44:16.669Z,69.20
2023-09-22T20:47:46.302Z,69.58
2023-09-22T20:51:13.995Z,69.36
2023-09-22T20:54:40.552Z,68.77
2023-09-22T20:58:06.778Z,68.57
2023-09-22T21:01:32.558Z,69.07
2023-09-22T21:04:57.017Z,69.19
2023-09-22T21:08:24.135Z,69.21
2023-09-22T21:11:48.002Z,70.14
2023-09-22T21:15:13.124Z,69.12
2023-09-22T21:18:36.969Z,69.79
2023-09-22T21:22:01.927Z,69.86
2023-09-22T21:25:28.061Z,69.88
2023-09-22T21:28:53.449Z,69.75
2023-09-22T21:32:18.310Z,69.66
2023-09-22T21:35:42.648Z,69.34
2023-09-22T21:39:07.572Z,69.26
2023-09-22T21:42:33.836Z,69.38
2023-09-22T21:45:57.483Z,69.00
2023-09-22T21:49:22.054Z,68.83
2023-09-22T21:52:47.141Z,68.87
2023-09-22T21:56:11.492Z,68.44
2023-09-22T21:59:38.019Z,68.15
2023-09-22T22:03:03.383Z,66.13
2023-09-22T22:06:29.133Z,68.70
2023-09-22T22:09:54.778Z,68.50
2023-09-22T22:13:21.871Z,69.46
2023-09-22T22:16:47.663Z,68.49
2023-09-22T22:20:19.181Z,66.89
2023-09-22T22:23:44.743Z,68.92
2023-09-22T22:27:10.874Z,68.42
2023-09-22T22:30:37.716Z,67.54
2023-09-22T22:34:03.683Z,68.64
2023-09-22T22:37:28.961Z,67.61
2023-09-22T22:40:54.975Z,67.35
2023-09-22T22:44:18.905Z,67.93
2023-09-22T22:47:44.305Z,69.28
2023-09-22T22:51:11.544Z,69.81
2023-09-22T22:54:36.758Z,70.57
2023-09-22T22:58:02.110Z,70.82
2023-09-22T23:01:29.812Z,70.16
2023-09-22T23:04:55.343Z,70.67
2023-09-22T23:08:21.944Z,72.20
2023-09-22T23:11:46.911Z,73.04
2023-09-22T23:15:14.268Z,72.43
2023-09-22T23:18:38.398Z,72.32
2023-09-22T23:22:09.201Z,73.01
2023-09-22T23:25:36.438Z,72.07
2023-09-22T23:29:02.422Z,72.50
2023-09-22T23:32:27.973Z,72.96
2023-09-22T23:35:54.599Z,72.15
2023-09-22T23:39:19.011Z,72.69
2023-09-22T23:42:46.713Z,71.64
2023-09-22T23:46:11.184Z,72.09
2023-09-22T23:49:36.286Z,72.87
2023-09-22T23:53:01.249Z,73.66
2023-09-22T23:56:26.134Z,74.59
2023-09-22T23:59:52.172Z,75.84
